Lecompton, KS

2:40 AM CST on December 16, 2019 (GMT -0600)
Lecompton Elementary | | Change Station
Active Advisory: Winter Weather Advisory

Elev 984 ft 39.04 °N, 95.40 °W | Updated 21 seconds ago

Overcast
Overcast
23 °F
Feels Like 23 °F
N
2.24
Wind Variable Wind from ENE
Gusts 2.5 mph

Today
High -- | Low -- °F
--% Chance of Precip.
Yesterday
High -- | Low -- °F
Precip. -- in
Pressure 30.14 in
Visibility 10.0 miles
Clouds Mostly Cloudy 1500 ft
Overcast 2100 ft
Windchill 23 °F
Dew Point 18 °F
Humidity 82%
Rainfall 0.00 in
Snow Depth Not available.
7:33 AM 5:00 PM
Waning Gibbous, 80% visible
METAR KLWC 160752Z AUTO 00000KT 10SM BKN015 OVC021 M06/M08 A3010 RMK AO2 SLP204 T10561078
Pressure 30.14 in
Visibility 10.0 miles
Clouds Mostly Cloudy 1500 ft
Overcast 2100 ft
Windchill 23 °F
Dew Point 18 °F
Humidity 82%
Rainfall 0.00 in
Snow Depth Not available.
7:33 AM 5:00 PM
Waning Gibbous, 80% visible
METAR KLWC 160752Z AUTO 00000KT 10SM BKN015 OVC021 M06/M08 A3010 RMK AO2 SLP204 T10561078

Get Your Daily Forecast Email!

Thanks for signing up!

Be on the lookout for a verification email in your inbox.

You'll start receiving severe weather alerts in your inbox..

×

10-Day Weather Forecast

Almanac

Astronomy

Dec. 16, 2019 Rise Set
Actual Time
Civil Twilight
Nautical Twilight
Astronomical Twilight
Moon
Length of Visible Light
Length of Day
Tomorrow will be .
, % of the Moon is Illuminated

Today's Extremes

State Highs State Lows

Community

WunderPhotos

Category 6

Welcome to Category 6. This is the collective home for Weather Underground's featured writeups by Dr. Jeff Masters (right), Bob Henson (left), Chris Burt, and other regular contributors.

Nearby

Air Quality

  Air Quality AQ Index Pollutant
Not available.

Snow Depth

Station Depth Elevation

Earthquake Activity

City Distance Mag. Time & Date
Minimum magnitude displayed is 2.5.

Coastal Water Temperatures

Place Temperature

Stations

Nearby Weather Stations

Station Location Temp. Windchill Dew Point Humidity Wind Precip. Elev Updated Type
                   

Watches & Warnings

Winter Weather Advisory
Issued: 2:29 AM CST Dec. 16, 2019 – National Weather Service

... Winter Weather Advisory remains in effect until 6 PM CST this
evening...

* what... snow expected. Total snow accumulations of 1 to 2
inches.

* Where... portions of east central Kansas.

* When... from midnight tonight to 6 PM CST Monday.

* Impacts... plan on slippery Road conditions. The hazardous
conditions could impact the morning or evening commute.

Precautionary/preparedness actions...

Slow down and use caution while traveling.

The latest Road conditions for the state you are calling from can
be obtained by calling 5 1 1.